sensor_id;sensor_type;location;lat;lon;timestamp;P1;durP1;ratioP1;P2;durP2;ratioP2
21352;SDS011;10834;52.268;6.770;2023-05-15T00:01:59;39.90;;;27.23;;
21352;SDS011;10834;52.268;6.770;2023-05-15T00:04:46;39.70;;;28.03;;
21352;SDS011;10834;52.268;6.770;2023-05-15T00:07:32;38.90;;;27.13;;
21352;SDS011;10834;52.268;6.770;2023-05-15T00:10:20;39.53;;;26.80;;
21352;SDS011;10834;52.268;6.770;2023-05-15T00:13:06;43.83;;;28.83;;
21352;SDS011;10834;52.268;6.770;2023-05-15T00:15:52;39.83;;;27.80;;
21352;SDS011;10834;52.268;6.770;2023-05-15T00:18:38;43.50;;;27.30;;
21352;SDS011;10834;52.268;6.770;2023-05-15T00:21:24;40.30;;;27.20;;
21352;SDS011;10834;52.268;6.770;2023-05-15T00:24:10;41.17;;;27.77;;
21352;SDS011;10834;52.268;6.770;2023-05-15T00:26:58;40.10;;;27.43;;
21352;SDS011;10834;52.268;6.770;2023-05-15T00:29:45;42.70;;;27.20;;
21352;SDS011;10834;52.268;6.770;2023-05-15T00:32:31;43.43;;;29.27;;
21352;SDS011;10834;52.268;6.770;2023-05-15T00:35:17;45.77;;;29.20;;
21352;SDS011;10834;52.268;6.770;2023-05-15T00:38:03;47.23;;;30.63;;
21352;SDS011;10834;52.268;6.770;2023-05-15T00:40:49;39.17;;;26.83;;
21352;SDS011;10834;52.268;6.770;2023-05-15T00:43:37;43.37;;;29.23;;
21352;SDS011;10834;52.268;6.770;2023-05-15T00:46:24;43.47;;;28.63;;
21352;SDS011;10834;52.268;6.770;2023-05-15T00:49:13;44.00;;;28.87;;
21352;SDS011;10834;52.268;6.770;2023-05-15T00:52:01;43.37;;;28.13;;
21352;SDS011;10834;52.268;6.770;2023-05-15T00:54:48;43.03;;;27.17;;
21352;SDS011;10834;52.268;6.770;2023-05-15T00:57:34;44.40;;;28.73;;
21352;SDS011;10834;52.268;6.770;2023-05-15T01:00:20;46.13;;;30.23;;
21352;SDS011;10834;52.268;6.770;2023-05-15T01:03:06;47.37;;;29.73;;
21352;SDS011;10834;52.268;6.770;2023-05-15T01:05:53;44.67;;;28.20;;
21352;SDS011;10834;52.268;6.770;2023-05-15T01:08:44;45.47;;;29.40;;
21352;SDS011;10834;52.268;6.770;2023-05-15T01:11:31;48.10;;;30.97;;
21352;SDS011;10834;52.268;6.770;2023-05-15T01:14:22;49.37;;;29.80;;
21352;SDS011;10834;52.268;6.770;2023-05-15T01:17:08;43.27;;;28.13;;
21352;SDS011;10834;52.268;6.770;2023-05-15T01:19:54;47.80;;;29.33;;
21352;SDS011;10834;52.268;6.770;2023-05-15T01:32:23;49.37;;;29.23;;
21352;SDS011;10834;52.268;6.770;2023-05-15T01:35:32;44.00;;;28.23;;
21352;SDS011;10834;52.268;6.770;2023-05-15T01:38:32;44.27;;;28.50;;
21352;SDS011;10834;52.268;6.770;2023-05-15T01:44:18;44.77;;;29.10;;
21352;SDS011;10834;52.268;6.770;2023-05-15T01:47:38;44.67;;;27.97;;
21352;SDS011;10834;52.268;6.770;2023-05-15T01:50:28;47.07;;;28.37;;
21352;SDS011;10834;52.268;6.770;2023-05-15T01:53:17;48.40;;;29.87;;
21352;SDS011;10834;52.268;6.770;2023-05-15T01:56:05;47.83;;;29.03;;
21352;SDS011;10834;52.268;6.770;2023-05-15T01:58:54;45.57;;;29.00;;
21352;SDS011;10834;52.268;6.770;2023-05-15T02:01:41;46.10;;;30.00;;
21352;SDS011;10834;52.268;6.770;2023-05-15T02:04:29;47.13;;;29.43;;
21352;SDS011;10834;52.268;6.770;2023-05-15T02:07:16;48.70;;;30.27;;
21352;SDS011;10834;52.268;6.770;2023-05-15T02:10:02;45.23;;;28.47;;
21352;SDS011;10834;52.268;6.770;2023-05-15T02:12:49;46.23;;;27.97;;
21352;SDS011;10834;52.268;6.770;2023-05-15T02:15:36;42.37;;;26.33;;
21352;SDS011;10834;52.268;6.770;2023-05-15T02:18:22;47.87;;;28.77;;
21352;SDS011;10834;52.268;6.770;2023-05-15T02:21:08;45.03;;;28.87;;
21352;SDS011;10834;52.268;6.770;2023-05-15T02:23:55;45.10;;;28.07;;
21352;SDS011;10834;52.268;6.770;2023-05-15T02:33:10;45.87;;;28.67;;
21352;SDS011;10834;52.268;6.770;2023-05-15T02:36:18;51.37;;;29.47;;
21352;SDS011;10834;52.268;6.770;2023-05-15T02:39:07;45.40;;;27.13;;
21352;SDS011;10834;52.268;6.770;2023-05-15T02:41:56;46.90;;;29.40;;
21352;SDS011;10834;52.268;6.770;2023-05-15T02:44:44;46.97;;;28.87;;
21352;SDS011;10834;52.268;6.770;2023-05-15T02:47:31;46.20;;;28.47;;
21352;SDS011;10834;52.268;6.770;2023-05-15T02:50:18;47.90;;;29.13;;
21352;SDS011;10834;52.268;6.770;2023-05-15T02:53:05;50.97;;;31.63;;
21352;SDS011;10834;52.268;6.770;2023-05-15T02:55:52;47.03;;;30.27;;
21352;SDS011;10834;52.268;6.770;2023-05-15T02:58:37;48.67;;;29.50;;
21352;SDS011;10834;52.268;6.770;2023-05-15T03:01:24;48.33;;;29.90;;
21352;SDS011;10834;52.268;6.770;2023-05-15T03:04:10;46.00;;;29.90;;
21352;SDS011;10834;52.268;6.770;2023-05-15T03:06:58;49.87;;;30.20;;
21352;SDS011;10834;52.268;6.770;2023-05-15T03:09:44;43.80;;;28.57;;
21352;SDS011;10834;52.268;6.770;2023-05-15T03:12:30;48.87;;;28.97;;
21352;SDS011;10834;52.268;6.770;2023-05-15T03:15:17;48.37;;;29.07;;
21352;SDS011;10834;52.268;6.770;2023-05-15T03:18:03;44.23;;;29.57;;
21352;SDS011;10834;52.268;6.770;2023-05-15T03:20:50;48.07;;;30.07;;
21352;SDS011;10834;52.268;6.770;2023-05-15T03:23:37;48.07;;;28.57;;
21352;SDS011;10834;52.268;6.770;2023-05-15T03:26:23;48.80;;;31.73;;
21352;SDS011;10834;52.268;6.770;2023-05-15T03:29:09;50.93;;;30.10;;
21352;SDS011;10834;52.268;6.770;2023-05-15T03:31:55;50.30;;;30.43;;
21352;SDS011;10834;52.268;6.770;2023-05-15T03:34:41;48.03;;;28.90;;
21352;SDS011;10834;52.268;6.770;2023-05-15T03:37:27;41.37;;;27.80;;
21352;SDS011;10834;52.268;6.770;2023-05-15T03:40:13;49.33;;;29.20;;
21352;SDS011;10834;52.268;6.770;2023-05-15T03:42:59;45.50;;;27.20;;
21352;SDS011;10834;52.268;6.770;2023-05-15T03:45:45;44.90;;;27.47;;
21352;SDS011;10834;52.268;6.770;2023-05-15T03:48:31;42.80;;;27.07;;
21352;SDS011;10834;52.268;6.770;2023-05-15T03:51:18;42.67;;;26.73;;
21352;SDS011;10834;52.268;6.770;2023-05-15T03:54:04;43.37;;;27.77;;
21352;SDS011;10834;52.268;6.770;2023-05-15T03:56:50;45.30;;;29.57;;
21352;SDS011;10834;52.268;6.770;2023-05-15T03:59:36;43.73;;;27.27;;
21352;SDS011;10834;52.268;6.770;2023-05-15T04:02:22;44.20;;;27.07;;
21352;SDS011;10834;52.268;6.770;2023-05-15T04:05:08;44.97;;;27.37;;
21352;SDS011;10834;52.268;6.770;2023-05-15T04:07:55;41.20;;;26.17;;
21352;SDS011;10834;52.268;6.770;2023-05-15T04:10:41;46.93;;;28.17;;
21352;SDS011;10834;52.268;6.770;2023-05-15T04:13:27;43.87;;;27.53;;
21352;SDS011;10834;52.268;6.770;2023-05-15T04:16:13;48.50;;;28.57;;
21352;SDS011;10834;52.268;6.770;2023-05-15T04:18:59;45.67;;;28.00;;
21352;SDS011;10834;52.268;6.770;2023-05-15T04:21:45;45.40;;;29.30;;
21352;SDS011;10834;52.268;6.770;2023-05-15T04:24:31;44.17;;;26.40;;
21352;SDS011;10834;52.268;6.770;2023-05-15T04:27:17;41.50;;;26.83;;
21352;SDS011;10834;52.268;6.770;2023-05-15T04:30:03;46.07;;;27.97;;
21352;SDS011;10834;52.268;6.770;2023-05-15T04:32:50;43.70;;;28.57;;
21352;SDS011;10834;52.268;6.770;2023-05-15T04:35:36;40.03;;;24.30;;
21352;SDS011;10834;52.268;6.770;2023-05-15T04:38:22;40.73;;;24.40;;
21352;SDS011;10834;52.268;6.770;2023-05-15T04:41:08;37.20;;;24.93;;
21352;SDS011;10834;52.268;6.770;2023-05-15T04:43:54;37.40;;;24.33;;
21352;SDS011;10834;52.268;6.770;2023-05-15T04:46:40;35.60;;;24.17;;
21352;SDS011;10834;52.268;6.770;2023-05-15T04:49:26;40.20;;;26.37;;
21352;SDS011;10834;52.268;6.770;2023-05-15T04:52:12;41.50;;;27.10;;
21352;SDS011;10834;52.268;6.770;2023-05-15T04:54:58;43.63;;;26.20;;
21352;SDS011;10834;52.268;6.770;2023-05-15T04:57:45;43.90;;;27.00;;
21352;SDS011;10834;52.268;6.770;2023-05-15T05:00:32;40.87;;;28.57;;
21352;SDS011;10834;52.268;6.770;2023-05-15T05:03:18;42.77;;;27.63;;
21352;SDS011;10834;52.268;6.770;2023-05-15T05:06:04;43.00;;;27.33;;
21352;SDS011;10834;52.268;6.770;2023-05-15T05:08:50;41.10;;;27.40;;
21352;SDS011;10834;52.268;6.770;2023-05-15T05:11:39;40.10;;;25.70;;
21352;SDS011;10834;52.268;6.770;2023-05-15T05:14:28;41.60;;;26.10;;
21352;SDS011;10834;52.268;6.770;2023-05-15T05:17:14;37.57;;;25.83;;
21352;SDS011;10834;52.268;6.770;2023-05-15T05:20:00;37.70;;;24.80;;
21352;SDS011;10834;52.268;6.770;2023-05-15T05:22:46;41.53;;;26.87;;
21352;SDS011;10834;52.268;6.770;2023-05-15T05:25:32;39.43;;;25.70;;
21352;SDS011;10834;52.268;6.770;2023-05-15T05:28:18;33.33;;;23.03;;
21352;SDS011;10834;52.268;6.770;2023-05-15T05:31:04;40.03;;;26.07;;
21352;SDS011;10834;52.268;6.770;2023-05-15T05:33:51;41.83;;;27.27;;
21352;SDS011;10834;52.268;6.770;2023-05-15T05:36:37;37.63;;;25.10;;
21352;SDS011;10834;52.268;6.770;2023-05-15T05:39:23;41.47;;;27.07;;
21352;SDS011;10834;52.268;6.770;2023-05-15T05:42:09;39.43;;;25.57;;
21352;SDS011;10834;52.268;6.770;2023-05-15T05:44:55;46.13;;;28.00;;
21352;SDS011;10834;52.268;6.770;2023-05-15T05:47:42;42.13;;;27.80;;
21352;SDS011;10834;52.268;6.770;2023-05-15T05:50:28;41.47;;;27.73;;
21352;SDS011;10834;52.268;6.770;2023-05-15T05:53:14;40.13;;;27.33;;
21352;SDS011;10834;52.268;6.770;2023-05-15T05:56:00;43.00;;;26.93;;
21352;SDS011;10834;52.268;6.770;2023-05-15T05:58:46;43.67;;;28.07;;
21352;SDS011;10834;52.268;6.770;2023-05-15T06:01:32;42.57;;;26.97;;
21352;SDS011;10834;52.268;6.770;2023-05-15T06:04:18;39.63;;;25.33;;
21352;SDS011;10834;52.268;6.770;2023-05-15T06:07:05;35.57;;;25.83;;
21352;SDS011;10834;52.268;6.770;2023-05-15T06:09:51;39.43;;;26.80;;
21352;SDS011;10834;52.268;6.770;2023-05-15T06:12:37;45.03;;;27.80;;
21352;SDS011;10834;52.268;6.770;2023-05-15T06:15:24;37.90;;;25.67;;
21352;SDS011;10834;52.268;6.770;2023-05-15T06:18:10;39.77;;;26.87;;
21352;SDS011;10834;52.268;6.770;2023-05-15T06:20:56;42.97;;;27.40;;
21352;SDS011;10834;52.268;6.770;2023-05-15T06:23:44;40.83;;;26.93;;
21352;SDS011;10834;52.268;6.770;2023-05-15T06:26:30;44.13;;;27.53;;
21352;SDS011;10834;52.268;6.770;2023-05-15T06:29:16;46.87;;;27.90;;
21352;SDS011;10834;52.268;6.770;2023-05-15T06:32:02;43.97;;;27.10;;
21352;SDS011;10834;52.268;6.770;2023-05-15T06:34:48;40.67;;;26.70;;
21352;SDS011;10834;52.268;6.770;2023-05-15T06:37:35;40.57;;;25.93;;
21352;SDS011;10834;52.268;6.770;2023-05-15T06:40:21;43.23;;;26.57;;
21352;SDS011;10834;52.268;6.770;2023-05-15T06:43:07;37.20;;;25.50;;
21352;SDS011;10834;52.268;6.770;2023-05-15T06:45:53;38.57;;;25.33;;
21352;SDS011;10834;52.268;6.770;2023-05-15T06:48:39;36.90;;;23.73;;
21352;SDS011;10834;52.268;6.770;2023-05-15T06:51:25;35.63;;;24.73;;
21352;SDS011;10834;52.268;6.770;2023-05-15T06:54:11;33.33;;;22.53;;
21352;SDS011;10834;52.268;6.770;2023-05-15T06:56:58;33.47;;;22.23;;
21352;SDS011;10834;52.268;6.770;2023-05-15T06:59:44;36.13;;;23.60;;
21352;SDS011;10834;52.268;6.770;2023-05-15T07:02:30;34.47;;;24.47;;
21352;SDS011;10834;52.268;6.770;2023-05-15T07:05:16;35.77;;;24.23;;
21352;SDS011;10834;52.268;6.770;2023-05-15T07:08:02;37.07;;;23.97;;
21352;SDS011;10834;52.268;6.770;2023-05-15T07:10:49;32.47;;;22.03;;
21352;SDS011;10834;52.268;6.770;2023-05-15T07:13:35;33.73;;;23.97;;
21352;SDS011;10834;52.268;6.770;2023-05-15T07:16:21;37.47;;;24.60;;
21352;SDS011;10834;52.268;6.770;2023-05-15T07:19:07;35.07;;;23.67;;
21352;SDS011;10834;52.268;6.770;2023-05-15T07:21:54;32.05;;;22.05;;
21352;SDS011;10834;52.268;6.770;2023-05-15T07:24:40;26.95;;;19.85;;
21352;SDS011;10834;52.268;6.770;2023-05-15T07:27:26;25.77;;;20.98;;
21352;SDS011;10834;52.268;6.770;2023-05-15T07:30:12;25.58;;;20.83;;
21352;SDS011;10834;52.268;6.770;2023-05-15T07:32:58;20.65;;;18.45;;
21352;SDS011;10834;52.268;6.770;2023-05-15T07:35:44;23.85;;;19.67;;
21352;SDS011;10834;52.268;6.770;2023-05-15T07:38:30;21.02;;;18.90;;
21352;SDS011;10834;52.268;6.770;2023-05-15T07:41:16;23.17;;;20.77;;
21352;SDS011;10834;52.268;6.770;2023-05-15T07:44:02;22.45;;;20.25;;
21352;SDS011;10834;52.268;6.770;2023-05-15T07:46:49;23.63;;;21.35;;
21352;SDS011;10834;52.268;6.770;2023-05-15T07:49:36;22.25;;;19.92;;
21352;SDS011;10834;52.268;6.770;2023-05-15T07:52:21;21.05;;;19.10;;
21352;SDS011;10834;52.268;6.770;2023-05-15T07:55:08;20.52;;;18.70;;
21352;SDS011;10834;52.268;6.770;2023-05-15T07:57:55;20.83;;;18.83;;
21352;SDS011;10834;52.268;6.770;2023-05-15T08:00:41;20.58;;;18.40;;
21352;SDS011;10834;52.268;6.770;2023-05-15T08:03:27;20.90;;;18.90;;
21352;SDS011;10834;52.268;6.770;2023-05-15T08:06:13;19.38;;;17.58;;
21352;SDS011;10834;52.268;6.770;2023-05-15T08:09:00;21.77;;;19.85;;
21352;SDS011;10834;52.268;6.770;2023-05-15T08:11:46;19.50;;;17.63;;
21352;SDS011;10834;52.268;6.770;2023-05-15T08:14:32;18.30;;;16.75;;
21352;SDS011;10834;52.268;6.770;2023-05-15T08:17:18;17.85;;;16.25;;
21352;SDS011;10834;52.268;6.770;2023-05-15T08:20:05;17.50;;;15.65;;
21352;SDS011;10834;52.268;6.770;2023-05-15T08:22:52;17.48;;;15.95;;
21352;SDS011;10834;52.268;6.770;2023-05-15T08:25:38;15.50;;;14.20;;
21352;SDS011;10834;52.268;6.770;2023-05-15T08:28:23;15.10;;;13.90;;
21352;SDS011;10834;52.268;6.770;2023-05-15T08:31:10;14.13;;;12.93;;
21352;SDS011;10834;52.268;6.770;2023-05-15T08:33:56;15.13;;;13.68;;
21352;SDS011;10834;52.268;6.770;2023-05-15T08:36:42;16.00;;;14.60;;
21352;SDS011;10834;52.268;6.770;2023-05-15T08:39:28;16.45;;;14.95;;
21352;SDS011;10834;52.268;6.770;2023-05-15T08:45:16;16.95;;;15.50;;
21352;SDS011;10834;52.268;6.770;2023-05-15T08:48:05;13.98;;;12.93;;
21352;SDS011;10834;52.268;6.770;2023-05-15T08:51:07;15.88;;;14.50;;
21352;SDS011;10834;52.268;6.770;2023-05-15T08:53:54;14.57;;;13.40;;
21352;SDS011;10834;52.268;6.770;2023-05-15T08:56:42;13.88;;;12.85;;
21352;SDS011;10834;52.268;6.770;2023-05-15T08:59:28;13.85;;;12.75;;
21352;SDS011;10834;52.268;6.770;2023-05-15T09:02:15;13.85;;;12.75;;
21352;SDS011;10834;52.268;6.770;2023-05-15T09:05:02;15.93;;;14.40;;
21352;SDS011;10834;52.268;6.770;2023-05-15T09:07:49;14.50;;;13.23;;
21352;SDS011;10834;52.268;6.770;2023-05-15T09:10:38;12.38;;;11.35;;
21352;SDS011;10834;52.268;6.770;2023-05-15T09:13:24;12.77;;;11.57;;
21352;SDS011;10834;52.268;6.770;2023-05-15T09:16:10;13.55;;;12.48;;
21352;SDS011;10834;52.268;6.770;2023-05-15T09:18:56;12.52;;;11.32;;
21352;SDS011;10834;52.268;6.770;2023-05-15T09:21:44;12.48;;;11.43;;
21352;SDS011;10834;52.268;6.770;2023-05-15T09:24:30;12.55;;;11.35;;
21352;SDS011;10834;52.268;6.770;2023-05-15T09:27:17;12.48;;;11.57;;
21352;SDS011;10834;52.268;6.770;2023-05-15T09:30:08;11.63;;;10.73;;
21352;SDS011;10834;52.268;6.770;2023-05-15T09:32:55;11.85;;;10.85;;
21352;SDS011;10834;52.268;6.770;2023-05-15T09:35:44;11.50;;;10.40;;
21352;SDS011;10834;52.268;6.770;2023-05-15T09:38:40;11.15;;;10.05;;
21352;SDS011;10834;52.268;6.770;2023-05-15T09:41:28;11.38;;;10.35;;
21352;SDS011;10834;52.268;6.770;2023-05-15T09:44:23;11.60;;;10.70;;
21352;SDS011;10834;52.268;6.770;2023-05-15T09:47:11;12.15;;;11.25;;
21352;SDS011;10834;52.268;6.770;2023-05-15T09:49:58;11.25;;;10.35;;
21352;SDS011;10834;52.268;6.770;2023-05-15T09:52:44;12.85;;;11.73;;
21352;SDS011;10834;52.268;6.770;2023-05-15T09:55:33;11.45;;;10.48;;
21352;SDS011;10834;52.268;6.770;2023-05-15T09:58:20;12.45;;;11.45;;
21352;SDS011;10834;52.268;6.770;2023-05-15T10:01:08;12.55;;;11.32;;
21352;SDS011;10834;52.268;6.770;2023-05-15T10:03:59;11.77;;;10.73;;
21352;SDS011;10834;52.268;6.770;2023-05-15T10:06:47;11.90;;;10.70;;
21352;SDS011;10834;52.268;6.770;2023-05-15T10:09:33;11.20;;;10.23;;
21352;SDS011;10834;52.268;6.770;2023-05-15T10:12:19;10.43;;;9.68;;
21352;SDS011;10834;52.268;6.770;2023-05-15T10:15:06;12.20;;;10.98;;
21352;SDS011;10834;52.268;6.770;2023-05-15T10:17:53;11.20;;;10.30;;
21352;SDS011;10834;52.268;6.770;2023-05-15T10:20:39;11.73;;;10.70;;
21352;SDS011;10834;52.268;6.770;2023-05-15T10:23:26;10.52;;;9.68;;
21352;SDS011;10834;52.268;6.770;2023-05-15T10:26:15;9.90;;;9.00;;
21352;SDS011;10834;52.268;6.770;2023-05-15T10:29:16;9.07;;;8.18;;
21352;SDS011;10834;52.268;6.770;2023-05-15T10:32:03;8.88;;;8.18;;
21352;SDS011;10834;52.268;6.770;2023-05-15T10:34:50;10.13;;;9.23;;
21352;SDS011;10834;52.268;6.770;2023-05-15T10:37:40;9.27;;;7.82;;
21352;SDS011;10834;52.268;6.770;2023-05-15T10:40:26;8.80;;;8.07;;
21352;SDS011;10834;52.268;6.770;2023-05-15T10:43:13;10.00;;;9.10;;
21352;SDS011;10834;52.268;6.770;2023-05-15T10:46:00;8.90;;;8.20;;
21352;SDS011;10834;52.268;6.770;2023-05-15T10:48:47;9.50;;;8.65;;
21352;SDS011;10834;52.268;6.770;2023-05-15T10:51:35;8.85;;;7.95;;
21352;SDS011;10834;52.268;6.770;2023-05-15T10:54:23;8.10;;;7.38;;
21352;SDS011;10834;52.268;6.770;2023-05-15T10:57:09;9.05;;;8.30;;
21352;SDS011;10834;52.268;6.770;2023-05-15T10:59:56;10.25;;;9.18;;
21352;SDS011;10834;52.268;6.770;2023-05-15T11:02:52;10.35;;;8.80;;
21352;SDS011;10834;52.268;6.770;2023-05-15T11:09:00;10.48;;;7.85;;
21352;SDS011;10834;52.268;6.770;2023-05-15T11:12:22;9.35;;;7.75;;
21352;SDS011;10834;52.268;6.770;2023-05-15T11:18:02;10.45;;;9.05;;
21352;SDS011;10834;52.268;6.770;2023-05-15T11:23:38;9.02;;;8.13;;
21352;SDS011;10834;52.268;6.770;2023-05-15T11:26:32;9.75;;;8.75;;
21352;SDS011;10834;52.268;6.770;2023-05-15T11:29:18;10.02;;;9.13;;
21352;SDS011;10834;52.268;6.770;2023-05-15T11:32:23;9.82;;;8.98;;
21352;SDS011;10834;52.268;6.770;2023-05-15T11:35:18;11.30;;;10.30;;
21352;SDS011;10834;52.268;6.770;2023-05-15T11:40:55;15.13;;;9.15;;
21352;SDS011;10834;52.268;6.770;2023-05-15T11:43:46;10.85;;;9.57;;
21352;SDS011;10834;52.268;6.770;2023-05-15T11:46:33;10.13;;;9.10;;
21352;SDS011;10834;52.268;6.770;2023-05-15T11:49:19;12.77;;;11.60;;
21352;SDS011;10834;52.268;6.770;2023-05-15T11:52:07;12.52;;;10.82;;
21352;SDS011;10834;52.268;6.770;2023-05-15T11:54:53;13.45;;;12.25;;
21352;SDS011;10834;52.268;6.770;2023-05-15T11:57:40;13.77;;;12.55;;
21352;SDS011;10834;52.268;6.770;2023-05-15T12:00:26;14.00;;;12.60;;
21352;SDS011;10834;52.268;6.770;2023-05-15T12:03:16;12.48;;;11.18;;
21352;SDS011;10834;52.268;6.770;2023-05-15T12:06:05;13.18;;;11.82;;
21352;SDS011;10834;52.268;6.770;2023-05-15T12:08:51;16.33;;;12.02;;
21352;SDS011;10834;52.268;6.770;2023-05-15T12:11:38;17.90;;;13.18;;
21352;SDS011;10834;52.268;6.770;2023-05-15T12:14:30;12.15;;;10.95;;
21352;SDS011;10834;52.268;6.770;2023-05-15T12:17:17;12.45;;;11.25;;
21352;SDS011;10834;52.268;6.770;2023-05-15T12:20:03;12.02;;;10.85;;
21352;SDS011;10834;52.268;6.770;2023-05-15T12:22:53;11.13;;;10.07;;
21352;SDS011;10834;52.268;6.770;2023-05-15T12:25:39;11.02;;;9.15;;
21352;SDS011;10834;52.268;6.770;2023-05-15T12:28:25;10.10;;;9.10;;
21352;SDS011;10834;52.268;6.770;2023-05-15T12:31:12;11.05;;;9.27;;
21352;SDS011;10834;52.268;6.770;2023-05-15T12:33:59;10.80;;;9.85;;
21352;SDS011;10834;52.268;6.770;2023-05-15T12:36:45;10.40;;;9.40;;
21352;SDS011;10834;52.268;6.770;2023-05-15T12:39:31;7.93;;;7.30;;
21352;SDS011;10834;52.268;6.770;2023-05-15T12:42:17;8.65;;;7.85;;
21352;SDS011;10834;52.268;6.770;2023-05-15T12:45:10;7.55;;;6.35;;
21352;SDS011;10834;52.268;6.770;2023-05-15T12:47:57;6.40;;;5.43;;
21352;SDS011;10834;52.268;6.770;2023-05-15T12:50:43;6.40;;;4.85;;
21352;SDS011;10834;52.268;6.770;2023-05-15T12:53:30;5.25;;;4.72;;
21352;SDS011;10834;52.268;6.770;2023-05-15T12:56:18;4.63;;;4.22;;
21352;SDS011;10834;52.268;6.770;2023-05-15T12:59:05;8.73;;;4.93;;
21352;SDS011;10834;52.268;6.770;2023-05-15T13:01:51;4.55;;;4.18;;
21352;SDS011;10834;52.268;6.770;2023-05-15T13:04:38;4.72;;;4.15;;
21352;SDS011;10834;52.268;6.770;2023-05-15T13:07:25;5.68;;;5.18;;
21352;SDS011;10834;52.268;6.770;2023-05-15T13:10:11;6.53;;;5.72;;
21352;SDS011;10834;52.268;6.770;2023-05-15T13:12:57;6.72;;;5.70;;
21352;SDS011;10834;52.268;6.770;2023-05-15T13:15:44;6.90;;;6.35;;
21352;SDS011;10834;52.268;6.770;2023-05-15T13:18:32;7.32;;;6.47;;
21352;SDS011;10834;52.268;6.770;2023-05-15T13:21:18;7.20;;;6.28;;
21352;SDS011;10834;52.268;6.770;2023-05-15T13:24:04;7.47;;;6.53;;
21352;SDS011;10834;52.268;6.770;2023-05-15T13:26:51;9.32;;;5.45;;
21352;SDS011;10834;52.268;6.770;2023-05-15T13:29:37;6.55;;;4.72;;
21352;SDS011;10834;52.268;6.770;2023-05-15T13:32:23;4.68;;;4.18;;
21352;SDS011;10834;52.268;6.770;2023-05-15T13:35:09;7.57;;;5.50;;
21352;SDS011;10834;52.268;6.770;2023-05-15T13:37:55;5.10;;;4.30;;
21352;SDS011;10834;52.268;6.770;2023-05-15T13:40:41;4.95;;;3.78;;
21352;SDS011;10834;52.268;6.770;2023-05-15T13:43:27;5.65;;;4.03;;
21352;SDS011;10834;52.268;6.770;2023-05-15T13:46:13;4.63;;;3.60;;
21352;SDS011;10834;52.268;6.770;2023-05-15T13:49:00;5.35;;;4.88;;
21352;SDS011;10834;52.268;6.770;2023-05-15T13:51:46;6.72;;;4.90;;
21352;SDS011;10834;52.268;6.770;2023-05-15T13:54:32;6.00;;;5.47;;
21352;SDS011;10834;52.268;6.770;2023-05-15T13:57:18;5.85;;;4.05;;
21352;SDS011;10834;52.268;6.770;2023-05-15T14:00:05;4.85;;;4.35;;
21352;SDS011;10834;52.268;6.770;2023-05-15T14:02:52;6.10;;;3.90;;
21352;SDS011;10834;52.268;6.770;2023-05-15T14:05:38;3.15;;;2.70;;
21352;SDS011;10834;52.268;6.770;2023-05-15T14:08:24;3.78;;;2.75;;
21352;SDS011;10834;52.268;6.770;2023-05-15T14:11:11;3.53;;;3.08;;
21352;SDS011;10834;52.268;6.770;2023-05-15T14:13:57;7.05;;;3.67;;
21352;SDS011;10834;52.268;6.770;2023-05-15T14:16:44;3.28;;;2.97;;
21352;SDS011;10834;52.268;6.770;2023-05-15T14:19:30;3.40;;;3.10;;
21352;SDS011;10834;52.268;6.770;2023-05-15T14:22:16;5.50;;;3.30;;
21352;SDS011;10834;52.268;6.770;2023-05-15T14:25:02;4.75;;;3.63;;
21352;SDS011;10834;52.268;6.770;2023-05-15T14:27:49;4.00;;;3.60;;
21352;SDS011;10834;52.268;6.770;2023-05-15T14:30:35;3.50;;;2.88;;
21352;SDS011;10834;52.268;6.770;2023-05-15T14:33:21;3.45;;;2.67;;
21352;SDS011;10834;52.268;6.770;2023-05-15T14:36:07;5.28;;;3.80;;
21352;SDS011;10834;52.268;6.770;2023-05-15T14:38:53;4.97;;;3.95;;
21352;SDS011;10834;52.268;6.770;2023-05-15T14:41:40;6.40;;;4.25;;
21352;SDS011;10834;52.268;6.770;2023-05-15T14:44:26;10.07;;;6.15;;
21352;SDS011;10834;52.268;6.770;2023-05-15T14:47:13;5.97;;;4.65;;
21352;SDS011;10834;52.268;6.770;2023-05-15T14:49:59;9.48;;;7.70;;
21352;SDS011;10834;52.268;6.770;2023-05-15T14:52:45;11.52;;;9.05;;
21352;SDS011;10834;52.268;6.770;2023-05-15T14:55:31;12.90;;;9.55;;
21352;SDS011;10834;52.268;6.770;2023-05-15T14:58:17;12.02;;;9.50;;
21352;SDS011;10834;52.268;6.770;2023-05-15T15:01:03;10.55;;;8.13;;
21352;SDS011;10834;52.268;6.770;2023-05-15T15:03:49;11.45;;;9.55;;
21352;SDS011;10834;52.268;6.770;2023-05-15T15:06:35;9.98;;;8.45;;
21352;SDS011;10834;52.268;6.770;2023-05-15T15:09:21;10.90;;;8.70;;
21352;SDS011;10834;52.268;6.770;2023-05-15T15:12:07;9.82;;;8.82;;
21352;SDS011;10834;52.268;6.770;2023-05-15T15:14:53;9.57;;;8.57;;
21352;SDS011;10834;52.268;6.770;2023-05-15T15:17:40;11.48;;;8.90;;
21352;SDS011;10834;52.268;6.770;2023-05-15T15:20:26;13.95;;;9.43;;
21352;SDS011;10834;52.268;6.770;2023-05-15T15:23:12;12.52;;;9.60;;
21352;SDS011;10834;52.268;6.770;2023-05-15T15:25:59;11.25;;;9.98;;
21352;SDS011;10834;52.268;6.770;2023-05-15T15:28:45;14.48;;;11.20;;
21352;SDS011;10834;52.268;6.770;2023-05-15T15:31:31;11.90;;;10.52;;
21352;SDS011;10834;52.268;6.770;2023-05-15T15:34:17;14.05;;;11.40;;
21352;SDS011;10834;52.268;6.770;2023-05-15T15:37:03;16.55;;;11.25;;
21352;SDS011;10834;52.268;6.770;2023-05-15T15:39:49;16.52;;;10.85;;
21352;SDS011;10834;52.268;6.770;2023-05-15T15:42:35;14.23;;;10.88;;
21352;SDS011;10834;52.268;6.770;2023-05-15T15:45:21;15.65;;;10.32;;
21352;SDS011;10834;52.268;6.770;2023-05-15T15:48:07;12.50;;;10.35;;
21352;SDS011;10834;52.268;6.770;2023-05-15T15:50:53;12.45;;;10.55;;
21352;SDS011;10834;52.268;6.770;2023-05-15T15:53:39;12.32;;;10.35;;
21352;SDS011;10834;52.268;6.770;2023-05-15T15:56:26;14.23;;;11.60;;
21352;SDS011;10834;52.268;6.770;2023-05-15T15:59:12;17.45;;;11.93;;
21352;SDS011;10834;52.268;6.770;2023-05-15T16:01:59;17.48;;;12.32;;
21352;SDS011;10834;52.268;6.770;2023-05-15T16:04:45;13.98;;;11.70;;
21352;SDS011;10834;52.268;6.770;2023-05-15T16:07:31;13.45;;;11.07;;
21352;SDS011;10834;52.268;6.770;2023-05-15T16:10:17;26.52;;;13.90;;
21352;SDS011;10834;52.268;6.770;2023-05-15T16:13:03;16.80;;;15.07;;
21352;SDS011;10834;52.268;6.770;2023-05-15T16:15:49;17.00;;;12.93;;
21352;SDS011;10834;52.268;6.770;2023-05-15T16:18:35;17.10;;;13.57;;
21352;SDS011;10834;52.268;6.770;2023-05-15T16:21:21;16.58;;;13.38;;
21352;SDS011;10834;52.268;6.770;2023-05-15T16:24:07;18.60;;;14.70;;
21352;SDS011;10834;52.268;6.770;2023-05-15T16:26:54;21.38;;;14.73;;
21352;SDS011;10834;52.268;6.770;2023-05-15T16:29:40;16.70;;;14.93;;
21352;SDS011;10834;52.268;6.770;2023-05-15T16:32:26;19.38;;;15.45;;
21352;SDS011;10834;52.268;6.770;2023-05-15T16:35:13;19.40;;;15.63;;
21352;SDS011;10834;52.268;6.770;2023-05-15T16:37:59;13.93;;;12.25;;
21352;SDS011;10834;52.268;6.770;2023-05-15T16:40:45;15.13;;;12.13;;
21352;SDS011;10834;52.268;6.770;2023-05-15T16:43:31;17.20;;;12.85;;
21352;SDS011;10834;52.268;6.770;2023-05-15T16:46:17;14.88;;;12.18;;
21352;SDS011;10834;52.268;6.770;2023-05-15T16:49:03;16.10;;;12.02;;
21352;SDS011;10834;52.268;6.770;2023-05-15T16:51:50;15.40;;;12.23;;
21352;SDS011;10834;52.268;6.770;2023-05-15T16:54:36;15.15;;;11.93;;
21352;SDS011;10834;52.268;6.770;2023-05-15T16:57:22;16.95;;;12.20;;
21352;SDS011;10834;52.268;6.770;2023-05-15T17:00:08;15.43;;;11.25;;